RJSARJCH

Guest
Details From RJSA - AOMORI
To RJCH - HAKODATE
Flight Number -
Tags generated
Created
Modified
Stats Distance 63 nm / 116 km
Max Altitude 8,100 ft / 2,469 m
Waypoints 3
Social Downloads 1
Likes 0
Share VATSIM

Download

Looking for another format? Having issues loading an existing format? Contact us
Advertisement - Login to hide

Notes

Basic altitude profile: - Ascent Rate: 2500ft/min - Ascent Speed: 250kts - Cruise Altitude: 35000ft - Cruise Speed: 420kts - Descent Rate: 1500ft/min - Descent Speed: 250kts Options: - Use NATs: yes - Use PACOTS: yes - Use low airways: yes - Use high airways: yes

Route

RJSA HIBAR RJCH

ID Type Via Altitude Latitude Longitude Leg Dist Tot Dist Heading (true) Name
O RJSA APT - 0 ft / 0 m 40.73327˚ 140.68859˚ - 0 nm - AOMORI
HIBAR FIX - 8,100 ft / 2,469 m 41.11064˚ 140.75044˚ 22 nm 22 nm 7° / 7° -
O RJCH APT - 0 ft / 0 m 41.77016˚ 140.82203˚ 39 nm 62 nm 5° / 5° HAKODATE

Altitude Profile

Advertisement - Login to hide

RJSA

Details ICAO RJSA (AOJ)
Name AOMORI
Region Japan
Timezone Asia/Tokyo (UTC+9.0)
Stats Elevation 664 ft / 202 m (AMSL)
Location 40.733272° 140.688594°
Runways 1
Magnetic Variation 8.939° W

METAR

Not found

TAF

TAF TAF RJSA 111106Z 1112/1218 24013KT 3000 -SHSN FEW005 BKN010 BKN015 TEMPO 1112/1121 0500 SHSN VV003 TEMPO 1121/1206 24020G30KT 0700 SHSN FEW002 BKN005 BKN008 TEMPO 1206/1218 24020G30KT 0500 SHSN BLSN VV003

Decode

Departure Runways

ID Width Length Bearing (true) Bearing (mag) Surface Threshold Offset Overrun Length
06 200 ft / 61 m 9,838 ft / 2,999 m 51.79° 60.73° Asphalt 0 ft / 0 m 200 ft / 61 m
24 200 ft / 61 m 9,838 ft / 2,999 m 231.81° 240.75° Asphalt 0 ft / 0 m 200 ft / 61 m

RJCH

Details ICAO RJCH (HKD)
Name HAKODATE
Region Japan
Timezone Asia/Tokyo (UTC+9.0)
Stats Elevation 151 ft / 46 m (AMSL)
Location 41.770161° 140.822030°
Runways 1
Magnetic Variation 9.238° W

METAR

Not found

TAF

TAF RJCH 111116Z 1112/1218 30010KT 9999 FEW008 BKN025 BECMG 1115/1117 27025G35KT TEMPO 1121/1203 2000 -SHSN FEW003 BKN006 TEMPO 1203/1209 0700 SHSN VV005 TEMPO 1209/1218 1500 -SHSN FEW003 BKN005

Decode

Destination Runways

ID Width Length Bearing (true) Bearing (mag) Surface Threshold Offset Overrun Length
12 150 ft / 46 m 9,814 ft / 2,991 m 108.09° 117.33° Asphalt 0 ft / 0 m 197 ft / 60 m
30 150 ft / 46 m 9,814 ft / 2,991 m 288.11° 297.35° Asphalt 0 ft / 0 m 197 ft / 60 m

Approach Navaids

Runway Type Ident Frequency Range Bearing (true) Bearing (mag) Slope Elevation
12 Localiser IHL 109.30 MHz 18 nm / 33 km 108.05° 117.29° - 51 ft / 16 m (AMSL)
12 Glidescope IHL 109.30 MHz 10 nm / 19 km 108.10° 117.34° 3.00° 151 ft / 46 m (AMSL)
12 DME IHL 109.30 MHz 18 nm / 33 km - - - 111 ft / 34 m (AMSL)